createdAt,value
2018-07-22T00:00:40.780Z,26.71
2018-07-22T00:01:40.797Z,26.71
2018-07-22T00:02:40.752Z,26.68
2018-07-22T00:03:40.738Z,26.72
2018-07-22T00:04:40.743Z,26.66
2018-07-22T00:05:40.759Z,26.72
2018-07-22T00:06:40.848Z,26.75
2018-07-22T00:07:40.699Z,26.75
2018-07-22T00:08:40.693Z,26.61
2018-07-22T00:09:41.154Z,26.73
2018-07-22T00:10:40.683Z,26.73
2018-07-22T00:11:40.656Z,26.72
2018-07-22T00:12:40.655Z,26.75
2018-07-22T00:13:40.639Z,26.72
2018-07-22T00:14:40.648Z,26.71
2018-07-22T00:15:40.998Z,26.73
2018-07-22T00:16:40.713Z,26.73
2018-07-22T00:17:40.621Z,26.71
2018-07-22T00:18:40.590Z,26.72
2018-07-22T00:19:40.609Z,26.69
2018-07-22T00:20:40.576Z,26.69
2018-07-22T00:21:40.681Z,26.61
2018-07-22T00:22:40.542Z,26.66
2018-07-22T00:23:40.670Z,26.72
2018-07-22T00:24:40.540Z,26.69
2018-07-22T00:25:40.554Z,26.69
2018-07-22T00:26:40.537Z,26.65
2018-07-22T00:27:40.716Z,26.68
2018-07-22T00:28:40.614Z,26.65
2018-07-22T00:29:40.486Z,26.68
2018-07-22T00:30:40.476Z,26.73
2018-07-22T00:31:40.467Z,26.57
2018-07-22T00:32:40.449Z,26.71
2018-07-22T00:33:40.432Z,26.69
2018-07-22T00:34:40.439Z,26.66
2018-07-22T00:35:40.414Z,26.61
2018-07-22T00:36:40.517Z,26.64
2018-07-22T00:37:40.454Z,26.65
2018-07-22T00:38:40.378Z,26.60
2018-07-22T00:39:40.406Z,26.65
2018-07-22T00:40:40.363Z,26.61
2018-07-22T00:41:40.346Z,26.65
2018-07-22T00:42:40.338Z,26.64
2018-07-22T00:43:40.334Z,26.64
2018-07-22T00:44:40.446Z,26.59
2018-07-22T00:45:40.457Z,26.64
2018-07-22T00:46:40.292Z,26.64
2018-07-22T00:47:40.305Z,26.61
2018-07-22T00:48:40.285Z,26.60
2018-07-22T00:49:40.287Z,26.59
2018-07-22T00:50:40.324Z,26.61
2018-07-22T00:51:40.356Z,26.65
2018-07-22T00:52:40.839Z,26.65
2018-07-22T00:53:40.325Z,26.59
2018-07-22T00:54:40.215Z,26.60
2018-07-22T00:55:40.237Z,26.56
2018-07-22T00:56:40.190Z,26.56
2018-07-22T00:57:40.189Z,26.57
2018-07-22T00:58:40.174Z,26.59
2018-07-22T00:59:40.154Z,26.61
2018-07-22T01:00:40.158Z,26.65
2018-07-22T01:01:40.206Z,26.59
2018-07-22T01:02:40.147Z,26.57
2018-07-22T01:03:40.198Z,26.64
2018-07-22T01:04:40.101Z,26.59
2018-07-22T01:05:40.240Z,26.56
2018-07-22T01:06:40.104Z,26.61
2018-07-22T01:07:40.084Z,26.53
2018-07-22T01:08:40.064Z,26.54
2018-07-22T01:09:40.165Z,26.49
2018-07-22T01:10:40.119Z,26.59
2018-07-22T01:11:40.176Z,26.46
2018-07-22T01:12:40.013Z,26.59
2018-07-22T01:13:40.017Z,26.57
2018-07-22T01:14:40.004Z,26.60
2018-07-22T01:15:40.116Z,26.53
2018-07-22T01:16:39.990Z,26.60
2018-07-22T01:17:39.974Z,26.61
2018-07-22T01:18:39.966Z,26.56
2018-07-22T01:19:39.950Z,26.60
2018-07-22T01:20:39.948Z,26.54
2018-07-22T01:21:39.939Z,26.51
2018-07-22T01:22:39.906Z,26.54
2018-07-22T01:23:39.910Z,26.59
2018-07-22T01:24:39.905Z,26.57
2018-07-22T01:25:39.905Z,26.49
2018-07-22T01:26:39.868Z,26.51
2018-07-22T01:27:39.914Z,26.57
2018-07-22T01:28:39.875Z,26.51
2018-07-22T01:29:39.853Z,26.51
2018-07-22T01:30:39.839Z,26.51
2018-07-22T01:31:39.958Z,26.50
2018-07-22T01:32:39.817Z,26.47
2018-07-22T01:33:39.793Z,26.59
2018-07-22T01:34:39.794Z,26.57
2018-07-22T01:35:39.792Z,26.44
2018-07-22T01:36:39.772Z,26.56
2018-07-22T01:37:39.756Z,26.47
2018-07-22T01:38:39.765Z,26.53
2018-07-22T01:39:39.754Z,26.53
2018-07-22T01:40:39.787Z,26.46
2018-07-22T01:41:39.725Z,26.49
2018-07-22T01:42:39.696Z,26.56
2018-07-22T01:43:39.712Z,26.57
2018-07-22T01:44:39.707Z,26.57
2018-07-22T01:45:39.682Z,26.50
2018-07-22T01:46:39.775Z,26.53
2018-07-22T01:47:39.647Z,26.54
2018-07-22T01:48:39.718Z,26.46
2018-07-22T01:49:39.637Z,26.53
2018-07-22T01:50:39.632Z,26.44
2018-07-22T01:51:39.623Z,26.54
2018-07-22T01:52:39.589Z,26.50
2018-07-22T01:53:39.583Z,26.56
2018-07-22T01:54:39.598Z,26.54
2018-07-22T01:55:39.604Z,26.51
2018-07-22T01:56:39.563Z,26.51
2018-07-22T01:57:39.539Z,26.46
2018-07-22T01:58:39.525Z,26.54
2018-07-22T01:59:39.661Z,26.49
2018-07-22T02:00:39.534Z,26.50
2018-07-22T02:01:39.526Z,26.53
2018-07-22T02:02:39.510Z,26.49
2018-07-22T02:03:39.482Z,26.42
2018-07-22T02:04:39.489Z,26.56
2018-07-22T02:05:39.464Z,26.53
2018-07-22T02:06:39.454Z,26.42
2018-07-22T02:07:39.429Z,26.41
2018-07-22T02:08:39.429Z,26.57
2018-07-22T02:09:39.584Z,26.53
2018-07-22T02:10:39.418Z,26.38
2018-07-22T02:11:39.456Z,26.47
2018-07-22T02:12:39.431Z,26.41
2018-07-22T02:13:39.392Z,26.53
2018-07-22T02:14:39.464Z,26.54
2018-07-22T02:15:39.341Z,26.50
2018-07-22T02:16:39.353Z,26.50
2018-07-22T02:17:39.347Z,26.50
2018-07-22T02:18:39.337Z,26.50
2018-07-22T02:19:39.325Z,26.44
2018-07-22T02:20:39.291Z,26.42
2018-07-22T02:21:39.296Z,26.47
2018-07-22T02:22:39.272Z,26.47
2018-07-22T02:23:39.259Z,26.49
2018-07-22T02:24:39.245Z,26.46
2018-07-22T02:25:39.247Z,26.39
2018-07-22T02:26:39.275Z,26.42
2018-07-22T02:27:39.217Z,26.42
2018-07-22T02:28:39.243Z,26.50
2018-07-22T02:29:39.221Z,26.41
2018-07-22T02:30:39.210Z,26.42
2018-07-22T02:31:39.204Z,26.44
2018-07-22T02:32:39.191Z,26.47
2018-07-22T02:33:39.183Z,26.46
2018-07-22T02:34:39.150Z,26.39
2018-07-22T02:35:39.140Z,26.44
2018-07-22T02:36:39.135Z,26.49
2018-07-22T02:37:39.122Z,26.44
2018-07-22T02:38:39.111Z,26.46
2018-07-22T02:39:39.096Z,26.36
2018-07-22T02:40:39.116Z,26.46
2018-07-22T02:41:39.091Z,26.50
2018-07-22T02:42:39.057Z,26.46
2018-07-22T02:43:39.188Z,26.38
2018-07-22T02:44:39.157Z,26.42
2018-07-22T02:45:39.126Z,26.42
2018-07-22T02:46:39.024Z,26.34
2018-07-22T02:47:39.022Z,26.38
2018-07-22T02:48:39.018Z,26.46
2018-07-22T02:49:38.990Z,26.38
2018-07-22T02:50:38.979Z,26.35
2018-07-22T02:51:38.972Z,26.35
2018-07-22T02:52:38.963Z,26.38
2018-07-22T02:53:38.968Z,26.41
2018-07-22T02:54:38.927Z,26.44
2018-07-22T02:55:38.926Z,26.39
2018-07-22T02:56:38.920Z,26.31
2018-07-22T02:57:38.898Z,26.36
2018-07-22T02:58:38.893Z,26.44
2018-07-22T02:59:38.881Z,26.42
2018-07-22T03:00:39.620Z,26.38
2018-07-22T03:01:38.867Z,26.38
2018-07-22T03:02:38.851Z,26.38
2018-07-22T03:03:38.825Z,26.38
2018-07-22T03:04:38.824Z,26.32
2018-07-22T03:05:38.843Z,26.35
2018-07-22T03:06:38.920Z,26.39
2018-07-22T03:07:38.800Z,26.38
2018-07-22T03:08:38.809Z,26.32
2018-07-22T03:09:38.762Z,26.36
2018-07-22T03:10:38.766Z,26.36
2018-07-22T03:11:38.768Z,26.36
2018-07-22T03:12:39.078Z,26.38
2018-07-22T03:13:39.399Z,26.42
2018-07-22T03:14:38.744Z,26.34
2018-07-22T03:15:38.704Z,26.36
2018-07-22T03:16:38.701Z,26.34
2018-07-22T03:17:38.705Z,26.36
2018-07-22T03:18:38.679Z,26.32
2018-07-22T03:19:38.675Z,26.39
2018-07-22T03:20:38.675Z,26.36
2018-07-22T03:21:38.653Z,26.41
2018-07-22T03:22:38.629Z,26.34
2018-07-22T03:23:38.614Z,26.42
2018-07-22T03:24:38.608Z,26.34
2018-07-22T03:25:38.626Z,26.34
2018-07-22T03:26:38.603Z,26.32
2018-07-22T03:27:38.586Z,26.35
2018-07-22T03:28:38.563Z,26.32
2018-07-22T03:29:38.561Z,26.28
2018-07-22T03:30:38.567Z,26.29
2018-07-22T03:31:38.540Z,26.38
2018-07-22T03:32:38.618Z,26.35
2018-07-22T03:33:38.521Z,26.31
2018-07-22T03:34:38.524Z,26.31
2018-07-22T03:35:38.502Z,26.29
2018-07-22T03:36:38.489Z,26.23
2018-07-22T03:37:38.468Z,26.32
2018-07-22T03:38:38.464Z,26.36
2018-07-22T03:39:38.469Z,26.29
2018-07-22T03:40:38.446Z,26.23
2018-07-22T03:41:38.423Z,26.34
2018-07-22T03:42:38.466Z,26.28
2018-07-22T03:43:38.399Z,26.23
2018-07-22T03:44:38.399Z,26.32
2018-07-22T03:45:38.409Z,26.31
2018-07-22T03:46:38.372Z,26.31
2018-07-22T03:47:38.387Z,26.24
2018-07-22T03:48:38.353Z,26.24
2018-07-22T03:49:38.365Z,26.32
2018-07-22T03:50:38.346Z,26.24
2018-07-22T03:51:38.322Z,26.23
2018-07-22T03:52:38.320Z,26.31
2018-07-22T03:53:38.321Z,26.19
2018-07-22T03:54:38.295Z,26.34
2018-07-22T03:55:38.317Z,26.29
2018-07-22T03:56:38.274Z,26.21
2018-07-22T03:57:38.262Z,26.21
2018-07-22T03:58:38.253Z,26.21
2018-07-22T03:59:38.235Z,26.34
2018-07-22T04:00:38.235Z,26.20
2018-07-22T04:01:38.320Z,26.27
2018-07-22T04:02:38.219Z,26.27
2018-07-22T04:03:38.201Z,26.19
2018-07-22T04:04:38.175Z,26.29
2018-07-22T04:05:38.213Z,26.27
2018-07-22T04:06:38.158Z,26.21
2018-07-22T04:07:38.183Z,26.27
2018-07-22T04:08:38.138Z,26.28
2018-07-22T04:09:38.137Z,26.19
2018-07-22T04:10:38.231Z,26.17
2018-07-22T04:11:38.105Z,26.17
2018-07-22T04:12:38.126Z,26.17
2018-07-22T04:13:38.091Z,26.20
2018-07-22T04:14:38.082Z,26.13
2018-07-22T04:15:38.098Z,26.21
2018-07-22T04:16:38.061Z,26.24
2018-07-22T04:17:38.046Z,26.13
2018-07-22T04:18:38.036Z,26.23
2018-07-22T04:19:38.020Z,26.20
2018-07-22T04:20:38.147Z,26.20
2018-07-22T04:21:37.996Z,26.19
2018-07-22T04:22:37.984Z,26.20
2018-07-22T04:23:38.006Z,26.17
2018-07-22T04:24:37.977Z,26.17
2018-07-22T04:25:37.965Z,26.21
2018-07-22T04:26:37.940Z,26.13
2018-07-22T04:27:37.934Z,26.20
2018-07-22T04:28:37.934Z,26.20
2018-07-22T04:29:37.919Z,26.20
2018-07-22T04:30:37.928Z,26.17
2018-07-22T04:31:38.046Z,26.20
2018-07-22T04:32:37.889Z,26.28
2018-07-22T04:33:37.880Z,26.19
2018-07-22T04:34:37.877Z,26.21
2018-07-22T04:35:37.848Z,26.27
2018-07-22T04:36:38.665Z,26.20
2018-07-22T04:37:37.845Z,26.20
2018-07-22T04:38:37.857Z,26.27
2018-07-22T04:39:37.954Z,26.20
2018-07-22T04:40:37.794Z,26.19
2018-07-22T04:41:37.796Z,26.17
2018-07-22T04:42:37.791Z,26.28
2018-07-22T04:43:37.787Z,26.20
2018-07-22T04:44:38.092Z,26.20
2018-07-22T04:45:37.766Z,26.27
2018-07-22T04:46:37.731Z,26.17
2018-07-22T04:47:37.728Z,26.16
2018-07-22T04:48:37.784Z,26.20
2018-07-22T04:49:37.702Z,26.23
2018-07-22T04:50:37.706Z,26.16
2018-07-22T04:51:37.693Z,26.17
2018-07-22T04:52:37.662Z,26.21
2018-07-22T04:53:37.763Z,26.13
2018-07-22T04:54:37.677Z,26.16
2018-07-22T04:55:37.640Z,26.27
2018-07-22T04:56:37.642Z,26.17
2018-07-22T04:57:37.723Z,26.17
2018-07-22T04:58:37.629Z,26.21
2018-07-22T04:59:37.726Z,26.13
2018-07-22T05:00:39.008Z,26.17
2018-07-22T05:01:37.567Z,26.21
2018-07-22T05:02:37.565Z,26.20
2018-07-22T05:03:37.583Z,26.17
2018-07-22T05:04:37.546Z,26.17
2018-07-22T05:05:37.545Z,26.17
2018-07-22T05:06:37.532Z,26.17
2018-07-22T05:07:37.504Z,26.21
2018-07-22T05:08:37.509Z,26.17
2018-07-22T05:09:37.503Z,26.19
2018-07-22T05:10:37.473Z,26.21
2018-07-22T05:11:37.489Z,26.21
2018-07-22T05:12:37.469Z,26.19
2018-07-22T05:13:37.461Z,26.20
2018-07-22T05:14:37.515Z,26.17
2018-07-22T05:15:37.434Z,26.21
2018-07-22T05:16:37.420Z,26.23
2018-07-22T05:17:37.412Z,26.17
2018-07-22T05:18:37.401Z,26.20
2018-07-22T05:19:37.405Z,26.17
2018-07-22T05:20:37.368Z,26.17
2018-07-22T05:21:37.361Z,26.23
2018-07-22T05:22:37.360Z,26.20
2018-07-22T05:23:37.448Z,26.27
2018-07-22T05:24:37.330Z,26.19
2018-07-22T05:25:37.336Z,26.17
2018-07-22T05:26:37.321Z,26.13
2018-07-22T05:27:37.416Z,26.27
2018-07-22T05:28:37.392Z,26.17
2018-07-22T05:29:37.291Z,26.20
2018-07-22T05:30:38.364Z,26.27
2018-07-22T05:31:37.257Z,26.29
2018-07-22T05:32:37.270Z,26.28
2018-07-22T05:33:37.253Z,26.20
2018-07-22T05:34:37.223Z,26.20
2018-07-22T05:35:37.204Z,26.29
2018-07-22T05:36:37.198Z,26.21
2018-07-22T05:37:37.191Z,26.23
2018-07-22T05:38:37.192Z,26.24
2018-07-22T05:39:37.184Z,26.24
2018-07-22T05:40:37.165Z,26.27
2018-07-22T05:41:37.153Z,26.32
2018-07-22T05:42:37.165Z,26.32
2018-07-22T05:43:37.119Z,26.32
2018-07-22T05:44:37.133Z,26.32
2018-07-22T05:45:37.119Z,26.32
2018-07-22T05:46:37.137Z,26.34
2018-07-22T05:47:37.082Z,26.31
2018-07-22T05:48:37.084Z,26.34
2018-07-22T05:49:37.108Z,26.31
2018-07-22T05:50:37.050Z,26.35
2018-07-22T05:51:37.347Z,26.29
2018-07-22T05:52:37.038Z,26.36
2018-07-22T05:53:37.030Z,26.28
2018-07-22T05:54:37.042Z,26.32
2018-07-22T05:55:37.013Z,26.29
2018-07-22T05:56:36.985Z,26.41
2018-07-22T05:57:36.987Z,26.29
2018-07-22T05:58:36.960Z,26.34
2018-07-22T05:59:36.960Z,26.41
2018-07-22T06:00:37.024Z,26.34
2018-07-22T06:01:37.033Z,26.35
2018-07-22T06:02:36.921Z,26.36
2018-07-22T06:03:37.040Z,26.28
2018-07-22T06:04:36.910Z,26.36
2018-07-22T06:05:36.906Z,26.34
2018-07-22T06:06:36.880Z,26.32
2018-07-22T06:07:36.888Z,26.39
2018-07-22T06:08:36.863Z,26.29
2018-07-22T06:09:36.870Z,26.36
2018-07-22T06:10:36.854Z,26.41
2018-07-22T06:11:36.823Z,26.39
2018-07-22T06:12:36.811Z,26.35
2018-07-22T06:13:36.838Z,26.38
2018-07-22T06:14:36.814Z,26.38
2018-07-22T06:15:36.785Z,26.36
2018-07-22T06:16:36.831Z,26.34
2018-07-22T06:17:36.805Z,26.39
2018-07-22T06:18:36.748Z,26.41
2018-07-22T06:19:36.763Z,26.35
2018-07-22T06:20:36.744Z,26.36
2018-07-22T06:21:36.744Z,26.32
2018-07-22T06:22:36.705Z,26.34
2018-07-22T06:23:36.701Z,26.34
2018-07-22T06:24:36.698Z,26.36
2018-07-22T06:25:36.697Z,26.36
2018-07-22T06:26:36.681Z,26.42
2018-07-22T06:27:36.653Z,26.41
2018-07-22T06:28:36.717Z,26.38
2018-07-22T06:29:36.778Z,26.42
2018-07-22T06:30:36.707Z,26.44
2018-07-22T06:31:36.612Z,26.41
2018-07-22T06:32:36.605Z,26.36
2018-07-22T06:33:36.588Z,26.39
2018-07-22T06:34:36.597Z,26.35
2018-07-22T06:35:36.596Z,26.41
2018-07-22T06:36:36.576Z,26.41
2018-07-22T06:37:36.546Z,26.35
2018-07-22T06:38:36.540Z,26.34
2018-07-22T06:39:36.543Z,26.46
2018-07-22T06:40:36.600Z,26.36
2018-07-22T06:41:36.525Z,26.34
2018-07-22T06:42:36.526Z,26.38
2018-07-22T06:43:36.506Z,26.38
2018-07-22T06:44:36.495Z,26.38
2018-07-22T06:45:36.479Z,26.39
2018-07-22T06:46:36.483Z,26.42
2018-07-22T06:47:36.469Z,26.39
2018-07-22T06:48:36.430Z,26.38
2018-07-22T06:49:36.440Z,26.47
2018-07-22T06:50:36.418Z,26.42
2018-07-22T06:51:36.431Z,26.42
2018-07-22T06:52:36.391Z,26.39
2018-07-22T06:53:36.492Z,26.46
2018-07-22T06:54:36.442Z,26.49
2018-07-22T06:55:36.371Z,26.44
2018-07-22T06:56:36.374Z,26.44
2018-07-22T06:57:36.331Z,26.47
2018-07-22T06:58:36.393Z,26.41
2018-07-22T06:59:36.336Z,26.41
2018-07-22T07:00:37.618Z,26.50
2018-07-22T07:01:36.296Z,26.46
2018-07-22T07:02:36.282Z,26.44
2018-07-22T07:03:36.281Z,26.47
2018-07-22T07:04:36.284Z,26.41
2018-07-22T07:05:36.266Z,26.44
2018-07-22T07:06:36.248Z,26.47
2018-07-22T07:07:36.234Z,26.47
2018-07-22T07:08:36.277Z,26.41
2018-07-22T07:09:36.246Z,26.39
2018-07-22T07:10:36.213Z,26.49
2018-07-22T07:11:36.328Z,26.44
2018-07-22T07:12:36.186Z,26.44
2018-07-22T07:13:36.181Z,26.41
2018-07-22T07:14:36.264Z,26.36
2018-07-22T07:15:36.164Z,26.53
2018-07-22T07:16:36.143Z,26.42
2018-07-22T07:17:36.125Z,26.53
2018-07-22T07:18:36.120Z,26.49
2018-07-22T07:19:36.135Z,26.44
2018-07-22T07:20:36.116Z,26.47
2018-07-22T07:21:36.227Z,26.51
2018-07-22T07:22:36.092Z,26.44
2018-07-22T07:23:36.073Z,26.53
2018-07-22T07:24:36.167Z,26.42
2018-07-22T07:25:36.048Z,26.50
2018-07-22T07:26:36.073Z,26.49
2018-07-22T07:27:36.025Z,26.42
2018-07-22T07:28:36.017Z,26.50
2018-07-22T07:29:36.156Z,26.50
2018-07-22T07:30:36.015Z,26.50
2018-07-22T07:31:36.197Z,26.47
2018-07-22T07:32:35.962Z,26.49
2018-07-22T07:33:36.006Z,26.41
2018-07-22T07:34:35.955Z,26.53
2018-07-22T07:35:36.018Z,26.47
2018-07-22T07:36:35.920Z,26.49
2018-07-22T07:37:35.921Z,26.56
2018-07-22T07:38:35.991Z,26.50
2018-07-22T07:39:35.913Z,26.44
2018-07-22T07:40:35.924Z,26.39
2018-07-22T07:41:35.996Z,26.50
2018-07-22T07:42:35.882Z,26.50
2018-07-22T07:43:35.843Z,26.57
2018-07-22T07:44:38.117Z,26.53
2018-07-22T07:45:35.850Z,26.42
2018-07-22T07:46:35.828Z,26.49
2018-07-22T07:47:35.940Z,26.38
2018-07-22T07:48:35.805Z,26.46
2018-07-22T07:49:35.778Z,26.35
2018-07-22T07:50:35.799Z,26.49
2018-07-22T07:51:35.774Z,26.44
2018-07-22T07:52:35.769Z,26.42
2018-07-22T07:53:35.754Z,26.38
2018-07-22T07:54:35.729Z,26.56
2018-07-22T07:55:35.729Z,26.56
2018-07-22T07:56:35.736Z,26.42
2018-07-22T07:57:35.692Z,26.50
2018-07-22T07:58:35.821Z,26.50
2018-07-22T07:59:35.794Z,26.38
2018-07-22T08:00:35.804Z,26.44
2018-07-22T08:01:35.685Z,26.53
2018-07-22T08:02:35.669Z,26.49
2018-07-22T08:03:35.786Z,26.50
2018-07-22T08:04:35.645Z,26.57
2018-07-22T08:05:35.726Z,26.56
2018-07-22T08:06:35.632Z,26.53
2018-07-22T08:07:35.592Z,26.46
2018-07-22T08:08:35.576Z,26.51
2018-07-22T08:09:35.579Z,26.46
2018-07-22T08:10:35.713Z,26.47
2018-07-22T08:11:35.672Z,26.53
2018-07-22T08:12:35.550Z,26.54
2018-07-22T08:13:35.551Z,26.47
2018-07-22T08:14:35.655Z,26.57
2018-07-22T08:15:35.517Z,26.57
2018-07-22T08:16:35.620Z,26.56
2018-07-22T08:17:35.501Z,26.54
2018-07-22T08:18:35.487Z,26.53
2018-07-22T08:19:35.473Z,26.47
2018-07-22T08:20:35.484Z,26.49
2018-07-22T08:21:35.589Z,26.56
2018-07-22T08:22:35.571Z,26.44
2018-07-22T08:23:35.453Z,26.50
2018-07-22T08:24:35.407Z,26.60
2018-07-22T08:25:35.529Z,26.44
2018-07-22T08:26:35.416Z,26.46
2018-07-22T08:27:35.508Z,26.46
2018-07-22T08:28:35.389Z,26.49
2018-07-22T08:29:35.654Z,26.56
2018-07-22T08:30:35.531Z,26.56
2018-07-22T08:31:35.347Z,26.56
2018-07-22T08:32:35.328Z,26.49
2018-07-22T08:33:35.325Z,26.53
2018-07-22T08:34:35.316Z,26.50
2018-07-22T08:35:35.303Z,26.49
2018-07-22T08:36:35.303Z,26.44
2018-07-22T08:37:35.373Z,26.50
2018-07-22T08:38:35.367Z,26.51
2018-07-22T08:39:36.141Z,26.54
2018-07-22T08:40:35.240Z,26.54
2018-07-22T08:41:35.307Z,26.53
2018-07-22T08:42:35.242Z,26.56
2018-07-22T08:43:35.222Z,26.51
2018-07-22T08:44:35.207Z,26.53
2018-07-22T08:45:35.192Z,26.60
2018-07-22T08:46:35.189Z,26.54
2018-07-22T08:47:35.864Z,26.50
2018-07-22T08:48:35.174Z,26.65
2018-07-22T08:49:35.142Z,26.56
2018-07-22T08:50:35.149Z,26.56
2018-07-22T08:51:35.281Z,26.49
2018-07-22T08:52:35.218Z,26.57
2018-07-22T08:53:35.123Z,26.51
2018-07-22T08:54:35.126Z,26.56
2018-07-22T08:55:36.576Z,26.60
2018-07-22T08:56:35.251Z,26.60
2018-07-22T08:57:35.091Z,26.60
2018-07-22T08:58:35.052Z,26.51
2018-07-22T08:59:35.039Z,26.64
2018-07-22T09:00:35.139Z,26.61
2018-07-22T09:01:35.036Z,26.54
2018-07-22T09:02:35.120Z,26.59
2018-07-22T09:03:35.058Z,26.57
2018-07-22T09:04:35.003Z,26.57
2018-07-22T09:05:35.048Z,26.50
2018-07-22T09:06:34.978Z,26.61
2018-07-22T09:07:35.071Z,26.68
2018-07-22T09:08:34.962Z,26.61
2018-07-22T09:09:34.950Z,26.57
2018-07-22T09:10:34.935Z,26.59
2018-07-22T09:11:35.070Z,26.60
2018-07-22T09:12:34.915Z,26.65
2018-07-22T09:13:34.912Z,26.65
2018-07-22T09:14:34.891Z,26.65
2018-07-22T09:15:34.881Z,26.61
2018-07-22T09:16:34.887Z,26.68
2018-07-22T09:17:34.867Z,26.65
2018-07-22T09:18:34.866Z,26.61
2018-07-22T09:19:34.952Z,26.61
2018-07-22T09:20:34.846Z,26.61
2018-07-22T09:21:34.993Z,26.69
2018-07-22T09:22:34.962Z,26.66
2018-07-22T09:23:34.796Z,26.69
2018-07-22T09:24:34.777Z,26.71
2018-07-22T09:25:34.766Z,26.66
2018-07-22T09:26:34.784Z,26.71
2018-07-22T09:27:34.849Z,26.69
2018-07-22T09:28:34.735Z,26.68
2018-07-22T09:29:34.751Z,26.68
2018-07-22T09:30:34.718Z,26.68
2018-07-22T09:31:34.855Z,26.72
2018-07-22T09:32:34.789Z,26.68
2018-07-22T09:33:34.684Z,26.69
2018-07-22T09:34:34.769Z,26.72
2018-07-22T09:35:34.675Z,26.75
2018-07-22T09:36:34.706Z,26.73
2018-07-22T09:37:34.666Z,26.73
2018-07-22T09:38:34.777Z,26.69
2018-07-22T09:39:34.635Z,26.68
2018-07-22T09:40:34.639Z,26.72
2018-07-22T09:41:34.619Z,26.69
2018-07-22T09:42:34.617Z,26.72
2018-07-22T09:43:34.605Z,26.76
2018-07-22T09:44:34.565Z,26.71
2018-07-22T09:45:34.583Z,26.71
2018-07-22T09:46:34.563Z,26.76
2018-07-22T09:47:34.564Z,26.81
2018-07-22T09:48:34.548Z,26.79
2018-07-22T09:49:34.655Z,26.83
2018-07-22T09:50:34.504Z,26.78
2018-07-22T09:51:34.511Z,26.79
2018-07-22T09:52:34.494Z,26.78
2018-07-22T09:53:34.617Z,26.71
2018-07-22T09:54:37.570Z,26.81
2018-07-22T09:55:34.465Z,26.75
2018-07-22T09:56:34.533Z,26.84
2018-07-22T09:57:34.441Z,26.84
2018-07-22T09:58:34.573Z,26.86
2018-07-22T09:59:34.415Z,26.79
2018-07-22T10:00:34.414Z,26.78
2018-07-22T10:01:34.534Z,26.83
2018-07-22T10:02:34.395Z,26.83
2018-07-22T10:03:34.514Z,26.78
2018-07-22T10:04:34.505Z,26.79
2018-07-22T10:05:34.359Z,26.79
2018-07-22T10:06:34.368Z,26.87
2018-07-22T10:07:34.325Z,26.79
2018-07-22T10:08:34.330Z,26.78
2018-07-22T10:09:34.328Z,26.78
2018-07-22T10:10:34.321Z,26.78
2018-07-22T10:11:34.282Z,26.88
2018-07-22T10:12:34.274Z,26.84
2018-07-22T10:13:34.371Z,26.86
2018-07-22T10:14:34.450Z,26.90
2018-07-22T10:15:34.346Z,26.90
2018-07-22T10:16:34.241Z,26.88
2018-07-22T10:17:34.248Z,26.94
2018-07-22T10:18:34.220Z,26.97
2018-07-22T10:19:34.209Z,27.01
2018-07-22T10:20:34.211Z,26.94
2018-07-22T10:21:34.199Z,26.88
2018-07-22T10:22:34.306Z,26.88
2018-07-22T10:23:34.351Z,26.94
2018-07-22T10:24:34.268Z,26.94
2018-07-22T10:25:34.150Z,26.97
2018-07-22T10:26:34.138Z,26.96
2018-07-22T10:27:34.257Z,26.94
2018-07-22T10:28:34.143Z,26.94
2018-07-22T10:29:34.238Z,27.01
2018-07-22T10:30:34.098Z,27.01
2018-07-22T10:31:34.176Z,26.97
2018-07-22T10:32:34.086Z,26.98
2018-07-22T10:33:34.181Z,27.02
2018-07-22T10:34:34.075Z,26.96
2018-07-22T10:35:34.046Z,27.02
2018-07-22T10:36:34.447Z,27.06
2018-07-22T10:37:34.027Z,27.01
2018-07-22T10:38:34.017Z,27.08
2018-07-22T10:39:33.988Z,26.96
2018-07-22T10:40:33.976Z,27.06
2018-07-22T10:41:33.967Z,27.08
2018-07-22T10:42:34.097Z,27.09
2018-07-22T10:43:33.957Z,27.05
2018-07-22T10:44:33.963Z,27.02
2018-07-22T10:45:33.947Z,27.03
2018-07-22T10:46:33.929Z,27.06
2018-07-22T10:47:33.920Z,27.13
2018-07-22T10:48:33.916Z,27.05
2018-07-22T10:49:33.897Z,27.05
2018-07-22T10:50:33.874Z,27.01
2018-07-22T10:51:33.885Z,27.02
2018-07-22T10:52:33.882Z,27.05
2018-07-22T10:53:33.870Z,27.09
2018-07-22T10:54:33.943Z,27.11
2018-07-22T10:55:33.945Z,27.15
2018-07-22T10:56:33.810Z,27.11
2018-07-22T10:57:33.818Z,27.16
2018-07-22T10:58:33.870Z,27.13
2018-07-22T10:59:33.812Z,27.15
2018-07-22T11:00:33.786Z,27.13
2018-07-22T11:01:33.881Z,27.12
2018-07-22T11:02:33.891Z,27.13
2018-07-22T11:03:33.756Z,27.13
2018-07-22T11:04:33.840Z,27.12
2018-07-22T11:05:33.730Z,27.15
2018-07-22T11:06:33.729Z,27.09
2018-07-22T11:07:33.717Z,27.13
2018-07-22T11:08:33.710Z,27.13
2018-07-22T11:09:33.686Z,27.09
2018-07-22T11:10:33.678Z,27.15
2018-07-22T11:11:33.675Z,27.11
2018-07-22T11:12:34.571Z,27.12
2018-07-22T11:13:33.645Z,27.20
2018-07-22T11:14:33.830Z,27.20
2018-07-22T11:15:33.610Z,27.23
2018-07-22T11:16:33.620Z,27.21
2018-07-22T11:17:33.603Z,27.24
2018-07-22T11:18:33.598Z,27.28
2018-07-22T11:19:33.699Z,27.24
2018-07-22T11:20:33.562Z,27.27
2018-07-22T11:21:33.556Z,27.24
2018-07-22T11:22:33.654Z,27.21
2018-07-22T11:23:33.544Z,27.30
2018-07-22T11:24:33.667Z,27.28
2018-07-22T11:25:33.568Z,27.31
2018-07-22T11:26:33.504Z,27.31
2018-07-22T11:27:33.586Z,27.27
2018-07-22T11:28:33.609Z,27.21
2018-07-22T11:29:33.486Z,27.28
2018-07-22T11:30:33.462Z,27.33
2018-07-22T11:31:33.458Z,27.31
2018-07-22T11:32:33.604Z,27.31
2018-07-22T11:33:33.445Z,27.31
2018-07-22T11:34:33.427Z,27.30
2018-07-22T11:35:33.476Z,27.34
2018-07-22T11:36:33.410Z,27.33
2018-07-22T11:37:33.378Z,27.35
2018-07-22T11:38:33.371Z,27.34
2018-07-22T11:39:33.494Z,27.33
2018-07-22T11:40:33.349Z,27.31
2018-07-22T11:41:33.471Z,27.34
2018-07-22T11:42:33.467Z,27.34
2018-07-22T11:43:33.435Z,27.46
2018-07-22T11:44:33.345Z,27.45
2018-07-22T11:45:33.295Z,27.43
2018-07-22T11:46:33.401Z,27.40
2018-07-22T11:47:33.303Z,27.35
2018-07-22T11:48:33.340Z,27.50
2018-07-22T11:49:33.247Z,27.43
2018-07-22T11:50:33.298Z,27.35
2018-07-22T11:51:33.235Z,27.45
2018-07-22T11:52:33.236Z,27.45
2018-07-22T11:53:33.228Z,27.49
2018-07-22T11:54:33.209Z,27.49
2018-07-22T11:55:33.185Z,27.55
2018-07-22T11:56:33.282Z,27.46
2018-07-22T11:57:33.284Z,27.58
2018-07-22T11:58:33.221Z,27.53
2018-07-22T11:59:33.279Z,27.58
2018-07-22T12:00:33.149Z,27.53
2018-07-22T12:01:33.257Z,27.58
2018-07-22T12:02:33.243Z,27.61
2018-07-22T12:03:33.213Z,27.61
2018-07-22T12:04:33.208Z,27.61
2018-07-22T12:05:33.191Z,27.63
2018-07-22T12:06:33.066Z,27.66
2018-07-22T12:07:33.089Z,27.65
2018-07-22T12:08:33.134Z,27.59
2018-07-22T12:09:33.749Z,27.76
2018-07-22T12:10:33.130Z,27.63
2018-07-22T12:11:33.013Z,27.71
2018-07-22T12:12:33.177Z,27.65
2018-07-22T12:13:33.010Z,27.71
2018-07-22T12:14:32.997Z,27.71
2018-07-22T12:15:33.087Z,27.74
2018-07-22T12:16:32.961Z,27.72
2018-07-22T12:17:32.961Z,27.74
2018-07-22T12:18:33.058Z,27.80
2018-07-22T12:19:32.935Z,27.74
2018-07-22T12:20:33.062Z,27.74
2018-07-22T12:21:32.925Z,27.78
2018-07-22T12:22:32.899Z,27.78
2018-07-22T12:23:33.014Z,27.76
2018-07-22T12:24:32.896Z,27.78
2018-07-22T12:25:32.995Z,27.81
2018-07-22T12:26:32.869Z,27.83
2018-07-22T12:27:32.868Z,27.95
2018-07-22T12:28:32.955Z,27.91
2018-07-22T12:29:32.837Z,27.90
2018-07-22T12:30:32.918Z,27.98
2018-07-22T12:31:39.000Z,27.98
2018-07-22T12:32:32.803Z,28.09
2018-07-22T12:33:32.801Z,28.08
2018-07-22T12:34:32.821Z,28.09
2018-07-22T12:35:32.888Z,28.09
2018-07-22T12:36:32.824Z,28.23
2018-07-22T12:37:32.886Z,28.14
2018-07-22T12:38:32.750Z,28.20
2018-07-22T12:39:32.833Z,28.18
2018-07-22T12:40:33.462Z,28.28
2018-07-22T12:41:32.701Z,28.20
2018-07-22T12:42:32.878Z,28.27
2018-07-22T12:43:32.700Z,28.25
2018-07-22T12:44:32.690Z,28.28
2018-07-22T12:45:32.682Z,28.24
2018-07-22T12:46:32.809Z,28.28
2018-07-22T12:47:32.635Z,28.33
2018-07-22T12:48:32.761Z,28.36
2018-07-22T12:49:32.620Z,28.39
2018-07-22T12:50:32.616Z,28.38
2018-07-22T12:51:32.718Z,28.39
2018-07-22T12:52:32.597Z,28.45